AUA45SM LEMG-LOWW
Flight info
| Callsign | AUA45SM |
|---|---|
| Flight time | N/A |
| Altitude | 36000 |
| Route | RIXUR N851 ISTER DCT NIVDA DCT OMEDA DCT RAPUR DCT TORTU DCT ERTEV DCT IDONA/N0453F370 DCT BARPI DCT LAPNA LAPNA2W |
| Aircraft | A320/M-SDE2E3FGHIJ1RWXY/LB1 |
Departure
| Time | 2026-05-04 07:56 |
|---|---|
| Airport | Málaga-Costa del Sol Airport (LEMG) |
Arrival
| Time | N/A |
|---|---|
| Airport | Vienna International Airport (LOWW) |
| Time | Latitude | Longitude | Altitude | Speed | Heading |
|---|---|---|---|---|---|
| 2026-05-04 07:33 | 36.67891 | -4.49496 | 41 ft | 0 kts | 214° |
| 2026-05-04 07:49 | 36.67908 | -4.49480 | 42 ft | 4 kts | 224° |
| 2026-05-04 07:49 | 36.67924 | -4.49455 | 39 ft | 4 kts | 253° |
| 2026-05-04 07:49 | 36.67923 | -4.49429 | 39 ft | 2 kts | 311° |
| 2026-05-04 07:50 | 36.67919 | -4.49424 | 40 ft | 0 kts | 311° |
| 2026-05-04 07:51 | 36.67920 | -4.49424 | 40 ft | 0 kts | 311° |
| 2026-05-04 07:51 | 36.67941 | -4.49454 | 39 ft | 9 kts | 311° |
| 2026-05-04 07:52 | 36.67993 | -4.49527 | 42 ft | 13 kts | 312° |
| 2026-05-04 07:52 | 36.68061 | -4.49563 | 40 ft | 11 kts | 28° |
| 2026-05-04 07:52 | 36.68118 | -4.49498 | 42 ft | 11 kts | 42° |
| 2026-05-04 07:52 | 36.68177 | -4.49434 | 42 ft | 11 kts | 41° |
| 2026-05-04 07:53 | 36.68238 | -4.49367 | 40 ft | 13 kts | 41° |
| 2026-05-04 07:54 | 36.67851 | -4.48240 | 38 ft | 21 kts | 117° |
| 2026-05-04 07:55 | 36.67808 | -4.48131 | 34 ft | 12 kts | 105° |
| 2026-05-04 07:55 | 36.67857 | -4.48065 | 36 ft | 11 kts | 26° |
| 2026-05-04 07:55 | 36.67919 | -4.48025 | 37 ft | 9 kts | 27° |
| 2026-05-04 07:55 | 36.67958 | -4.48048 | 36 ft | 7 kts | 297° |
| 2026-05-04 07:56 | 36.68020 | -4.48200 | 39 ft | 49 kts | 297° |
| 2026-05-04 07:56 | 36.68286 | -4.48832 | 43 ft | 112 kts | 297° |
| 2026-05-04 07:56 | 36.68728 | -4.49886 | 54 ft | 160 kts | 297° |
| 2026-05-04 07:56 | 36.69260 | -4.51121 | 689 ft | 161 kts | 299° |
| 2026-05-04 07:57 | 36.69710 | -4.51863 | 1139 ft | 164 kts | 313° |
| 2026-05-04 07:57 | 36.70523 | -4.52912 | 1679 ft | 176 kts | 313° |
| 2026-05-04 07:57 | 36.71409 | -4.54070 | 2098 ft | 192 kts | 313° |
| 2026-05-04 07:57 | 36.72361 | -4.55314 | 2578 ft | 206 kts | 313° |
| 2026-05-04 07:58 | 36.73381 | -4.56649 | 3194 ft | 219 kts | 313° |
| 2026-05-04 07:58 | 36.74447 | -4.58051 | 3944 ft | 224 kts | 312° |
| 2026-05-04 07:58 | 36.75641 | -4.59302 | 4752 ft | 229 kts | 331° |
| 2026-05-04 07:58 | 36.77175 | -4.59933 | 5512 ft | 234 kts | 341° |
| 2026-05-04 07:59 | 36.78752 | -4.60488 | 6268 ft | 238 kts | 339° |
| 2026-05-04 07:59 | 36.80398 | -4.60918 | 6942 ft | 249 kts | 354° |
| 2026-05-04 07:59 | 36.82139 | -4.60526 | 7630 ft | 262 kts | 20° |
| 2026-05-04 07:59 | 36.83669 | -4.59221 | 8356 ft | 272 kts | 39° |
| 2026-05-04 08:00 | 36.85087 | -4.57635 | 9118 ft | 276 kts | 38° |
| 2026-05-04 08:00 | 36.86537 | -4.56031 | 9828 ft | 282 kts | 38° |
| 2026-05-04 08:00 | 36.88021 | -4.54397 | 10476 ft | 287 kts | 38° |
| 2026-05-04 08:02 | 36.98289 | -4.41350 | 14733 ft | 335 kts | 70° |
| 2026-05-04 08:02 | 36.98903 | -4.38460 | 14871 ft | 355 kts | 82° |
| 2026-05-04 08:02 | 36.99378 | -4.35333 | 14994 ft | 377 kts | 81° |
| 2026-05-04 08:03 | 36.99896 | -4.32026 | 15119 ft | 398 kts | 81° |
| 2026-05-04 08:03 | 37.00457 | -4.28548 | 15238 ft | 416 kts | 80° |
| 2026-05-04 08:03 | 37.01048 | -4.24943 | 15365 ft | 432 kts | 80° |
| 2026-05-04 08:03 | 37.01667 | -4.21190 | 15492 ft | 448 kts | 80° |
| 2026-05-04 08:04 | 37.02300 | -4.17369 | 15759 ft | 458 kts | 80° |
| 2026-05-04 08:04 | 37.02946 | -4.13446 | 16186 ft | 463 kts | 80° |
| 2026-05-04 08:04 | 37.03590 | -4.09484 | 16648 ft | 466 kts | 80° |
| 2026-05-04 08:04 | 37.04234 | -4.05493 | 17100 ft | 470 kts | 81° |
| 2026-05-04 08:05 | 37.04879 | -4.01470 | 17563 ft | 473 kts | 81° |
| 2026-05-04 08:05 | 37.05527 | -3.97417 | 18017 ft | 477 kts | 81° |
| 2026-05-04 08:05 | 37.06180 | -3.93337 | 18444 ft | 480 kts | 80° |
| 2026-05-04 08:05 | 37.06839 | -3.89223 | 18826 ft | 484 kts | 81° |
| 2026-05-04 08:06 | 37.07501 | -3.85080 | 19210 ft | 487 kts | 81° |
| 2026-05-04 08:06 | 37.08169 | -3.80901 | 19553 ft | 490 kts | 81° |
| 2026-05-04 08:06 | 37.08836 | -3.76702 | 19901 ft | 494 kts | 81° |
| 2026-05-04 08:06 | 37.09505 | -3.72470 | 20240 ft | 497 kts | 81° |
| 2026-05-04 08:08 | 37.18751 | -3.43834 | 22594 ft | 520 kts | 64° |
| 2026-05-04 08:08 | 37.20357 | -3.39756 | 22902 ft | 523 kts | 64° |
| 2026-05-04 08:10 | 37.33431 | -3.06374 | 25028 ft | 539 kts | 64° |
| 2026-05-04 08:11 | 37.35077 | -3.02149 | 25372 ft | 538 kts | 64° |
| 2026-05-04 08:11 | 37.38358 | -2.93725 | 26120 ft | 536 kts | 64° |
| 2026-05-04 08:11 | 37.39968 | -2.89571 | 26473 ft | 536 kts | 64° |
| 2026-05-04 08:12 | 37.41597 | -2.85360 | 26821 ft | 535 kts | 64° |
| 2026-05-04 08:12 | 37.43224 | -2.81149 | 27137 ft | 535 kts | 64° |
| 2026-05-04 08:12 | 37.44849 | -2.76937 | 27519 ft | 535 kts | 64° |
| 2026-05-04 08:12 | 37.46477 | -2.72715 | 27848 ft | 535 kts | 64° |
| 2026-05-04 08:13 | 37.48102 | -2.68498 | 28198 ft | 535 kts | 64° |
| 2026-05-04 08:13 | 37.49724 | -2.64282 | 28553 ft | 535 kts | 65° |
| 2026-05-04 08:13 | 37.51343 | -2.60069 | 28961 ft | 534 kts | 65° |
| 2026-05-04 08:13 | 37.52960 | -2.55861 | 29347 ft | 534 kts | 65° |
| 2026-05-04 08:14 | 37.54573 | -2.51653 | 29709 ft | 533 kts | 65° |
| 2026-05-04 08:14 | 37.56184 | -2.47444 | 30076 ft | 533 kts | 65° |
| 2026-05-04 08:14 | 37.57791 | -2.43238 | 30404 ft | 532 kts | 65° |
| 2026-05-04 08:16 | 37.68942 | -2.13921 | 32732 ft | 526 kts | 65° |
| 2026-05-04 08:16 | 37.70523 | -2.09754 | 33033 ft | 526 kts | 65° |
| 2026-05-04 08:16 | 37.72100 | -2.05590 | 33331 ft | 525 kts | 65° |
| 2026-05-04 08:17 | 37.73671 | -2.01427 | 33667 ft | 525 kts | 65° |
| 2026-05-04 08:17 | 37.75234 | -1.97269 | 33988 ft | 524 kts | 66° |
| 2026-05-04 08:17 | 37.76793 | -1.93116 | 34258 ft | 523 kts | 65° |
| 2026-05-04 08:17 | 37.78331 | -1.89021 | 34502 ft | 523 kts | 65° |
| 2026-05-04 08:19 | 37.89187 | -1.59985 | 36004 ft | 524 kts | 65° |
| 2026-05-04 08:19 | 37.90746 | -1.55798 | 36001 ft | 527 kts | 65° |
| 2026-05-04 08:20 | 37.93865 | -1.47388 | 36006 ft | 528 kts | 66° |
| 2026-05-04 08:20 | 37.96979 | -1.38957 | 35997 ft | 528 kts | 66° |
| 2026-05-04 08:21 | 38.00097 | -1.30511 | 36002 ft | 529 kts | 66° |
| 2026-05-04 08:21 | 38.03206 | -1.22066 | 36001 ft | 529 kts | 66° |
| 2026-05-04 08:22 | 38.06310 | -1.13609 | 35979 ft | 529 kts | 66° |
| 2026-05-04 08:24 | 38.18647 | -0.79695 | 36009 ft | 529 kts | 66° |
| 2026-05-04 08:24 | 38.21724 | -0.71197 | 36012 ft | 529 kts | 66° |
| 2026-05-04 08:25 | 38.24772 | -0.62744 | 36014 ft | 529 kts | 66° |
| 2026-05-04 08:25 | 38.27808 | -0.54220 | 36013 ft | 529 kts | 68° |
| 2026-05-04 08:27 | 38.38833 | -0.19537 | 36010 ft | 528 kts | 68° |
| 2026-05-04 08:28 | 38.41755 | -0.10953 | 36006 ft | 528 kts | 68° |
| 2026-05-04 08:28 | 38.44649 | -0.02351 | 36005 ft | 528 kts | 68° |
| 2026-05-04 08:29 | 38.47468 | 0.06295 | 35986 ft | 528 kts | 69° |
| 2026-05-04 08:31 | 38.58538 | 0.41065 | 35986 ft | 528 kts | 69° |
| 2026-05-04 08:33 | 38.69527 | 0.75924 | 36013 ft | 529 kts | 70° |
| 2026-05-04 08:35 | 38.80423 | 1.10867 | 36015 ft | 529 kts | 70° |
| 2026-05-04 08:35 | 38.83130 | 1.19639 | 35998 ft | 529 kts | 70° |
| 2026-05-04 08:37 | 38.92576 | 1.50419 | 36026 ft | 530 kts | 70° |
| 2026-05-04 08:38 | 38.95195 | 1.59258 | 36003 ft | 530 kts | 71° |
| 2026-05-04 08:38 | 38.97777 | 1.68118 | 36009 ft | 530 kts | 71° |
| 2026-05-04 08:40 | 39.08123 | 2.03583 | 36004 ft | 529 kts | 70° |
| 2026-05-04 08:41 | 39.10697 | 2.12461 | 36032 ft | 529 kts | 71° |
| 2026-05-04 08:41 | 39.13254 | 2.21349 | 36024 ft | 529 kts | 71° |
| 2026-05-04 08:42 | 39.15817 | 2.30239 | 36001 ft | 529 kts | 71° |
| 2026-05-04 08:42 | 39.18378 | 2.39142 | 36008 ft | 529 kts | 71° |
| 2026-05-04 08:43 | 39.20922 | 2.48048 | 36008 ft | 529 kts | 71° |
| 2026-05-04 08:43 | 39.23454 | 2.56962 | 36010 ft | 529 kts | 71° |
| 2026-05-04 08:44 | 39.25982 | 2.65880 | 36017 ft | 529 kts | 71° |
| 2026-05-04 08:46 | 39.35621 | 3.00120 | 36036 ft | 530 kts | 71° |
| 2026-05-04 08:46 | 39.38119 | 3.09072 | 36013 ft | 529 kts | 71° |
| 2026-05-04 08:47 | 39.40616 | 3.18027 | 36013 ft | 530 kts | 71° |
| 2026-05-04 08:47 | 39.43908 | 3.28232 | 36018 ft | 529 kts | 59° |
| 2026-05-04 08:48 | 39.47082 | 3.35079 | 36013 ft | 529 kts | 58° |
| 2026-05-04 08:48 | 39.50858 | 3.43264 | 36015 ft | 530 kts | 58° |
| 2026-05-04 08:49 | 39.54610 | 3.51477 | 36035 ft | 530 kts | 58° |
| 2026-05-04 08:50 | 39.67702 | 3.80213 | 36025 ft | 530 kts | 58° |
| 2026-05-04 08:51 | 39.71433 | 3.88456 | 36028 ft | 529 kts | 58° |
| 2026-05-04 08:51 | 39.75162 | 3.96701 | 36047 ft | 529 kts | 58° |
| 2026-05-04 08:52 | 39.78887 | 4.04954 | 36041 ft | 529 kts | 58° |
| 2026-05-04 08:52 | 39.82601 | 4.13219 | 36040 ft | 529 kts | 58° |
| 2026-05-04 08:54 | 39.97430 | 4.46335 | 36051 ft | 529 kts | 58° |
| 2026-05-04 08:55 | 40.01122 | 4.54624 | 36042 ft | 528 kts | 58° |
| 2026-05-04 08:55 | 40.04812 | 4.62924 | 36034 ft | 528 kts | 58° |
| 2026-05-04 08:57 | 40.20674 | 4.88975 | 36048 ft | 523 kts | 47° |